createdAt,value
2019-02-24T00:01:06.589Z,53.30
2019-02-24T00:03:32.921Z,53.40
2019-02-24T00:05:59.251Z,53.40
2019-02-24T00:08:25.626Z,53.40
2019-02-24T00:10:52.237Z,53.40
2019-02-24T00:13:18.548Z,53.40
2019-02-24T00:15:44.879Z,53.50
2019-02-24T00:18:11.105Z,53.70
2019-02-24T00:20:37.422Z,53.50
2019-02-24T00:23:03.723Z,53.60
2019-02-24T00:25:30.098Z,53.60
2019-02-24T00:27:56.329Z,53.60
2019-02-24T00:30:22.661Z,53.60
2019-02-24T00:32:48.935Z,53.60
2019-02-24T00:35:15.227Z,53.50
2019-02-24T00:37:41.646Z,53.60
2019-02-24T00:40:08.034Z,53.60
2019-02-24T00:42:34.410Z,53.80
2019-02-24T00:45:00.631Z,53.70
2019-02-24T00:47:26.928Z,53.60
2019-02-24T00:49:53.297Z,53.70
2019-02-24T00:52:19.529Z,53.60
2019-02-24T00:54:45.826Z,53.60
2019-02-24T00:57:12.107Z,53.70
2019-02-24T00:59:38.403Z,53.60
2019-02-24T01:02:04.728Z,53.60
2019-02-24T01:04:31.036Z,53.70
2019-02-24T01:06:57.404Z,53.70
2019-02-24T01:09:23.735Z,53.70
2019-02-24T01:11:50.065Z,53.80
2019-02-24T01:14:16.398Z,53.80
2019-02-24T01:16:42.725Z,53.80
2019-02-24T01:19:09.144Z,54.00
2019-02-24T01:21:35.439Z,54.00
2019-02-24T01:24:02.040Z,54.10
2019-02-24T01:26:28.459Z,54.10
2019-02-24T01:28:54.750Z,54.10
2019-02-24T01:31:21.045Z,54.10
2019-02-24T01:33:47.347Z,54.00
2019-02-24T01:36:13.674Z,54.10
2019-02-24T01:38:40.106Z,54.20
2019-02-24T01:41:06.364Z,54.00
2019-02-24T01:43:32.768Z,54.00
2019-02-24T01:45:58.996Z,53.90
2019-02-24T01:48:25.223Z,54.00
2019-02-24T01:50:51.534Z,54.00
2019-02-24T01:53:17.884Z,54.00
2019-02-24T01:55:44.113Z,53.90
2019-02-24T01:58:10.442Z,53.90
2019-02-24T02:00:36.691Z,54.00
2019-02-24T02:03:03.379Z,53.80
2019-02-24T02:05:29.741Z,53.70
2019-02-24T02:07:55.984Z,53.70
2019-02-24T02:10:22.271Z,53.70
2019-02-24T02:12:48.944Z,53.60
2019-02-24T02:15:15.266Z,53.60
2019-02-24T02:17:41.545Z,53.50
2019-02-24T02:20:08.235Z,53.50
2019-02-24T02:22:34.443Z,53.50
2019-02-24T02:25:00.727Z,53.50
2019-02-24T02:27:27.124Z,53.50
2019-02-24T02:29:53.339Z,53.40
2019-02-24T02:32:19.902Z,53.40
2019-02-24T02:34:46.320Z,53.40
2019-02-24T02:37:12.652Z,53.30
2019-02-24T02:39:39.081Z,53.70
2019-02-24T02:42:05.398Z,53.30
2019-02-24T02:44:31.846Z,53.30
2019-02-24T02:46:58.113Z,53.20
2019-02-24T02:49:25.381Z,53.30
2019-02-24T02:51:51.658Z,53.30
2019-02-24T02:54:17.909Z,52.70
2019-02-24T02:56:44.217Z,53.20
2019-02-24T02:59:10.542Z,53.20
2019-02-24T03:01:36.878Z,53.20
2019-02-24T03:04:03.204Z,53.20
2019-02-24T03:06:46.737Z,53.20
2019-02-24T03:09:12.989Z,53.30
2019-02-24T03:11:39.399Z,53.20
2019-02-24T03:14:05.679Z,53.30
2019-02-24T03:16:32.057Z,53.20
2019-02-24T03:18:58.313Z,53.20
2019-02-24T03:21:24.820Z,53.30
2019-02-24T03:23:51.152Z,53.30
2019-02-24T03:26:17.485Z,53.30
2019-02-24T03:28:43.739Z,53.20
2019-02-24T03:33:36.789Z,52.80
2019-02-24T03:36:03.022Z,53.20
2019-02-24T03:38:29.333Z,53.20
2019-02-24T03:40:55.667Z,53.30
2019-02-24T03:43:22.317Z,53.20
2019-02-24T03:45:48.603Z,53.10
2019-02-24T03:48:14.965Z,53.00
2019-02-24T03:50:41.295Z,53.10
2019-02-24T03:53:07.712Z,52.90
2019-02-24T03:55:34.105Z,52.90
2019-02-24T03:58:00.383Z,52.90
2019-02-24T04:00:27.069Z,52.80
2019-02-24T04:02:53.374Z,52.80
2019-02-24T04:05:19.789Z,52.80
2019-02-24T04:07:46.121Z,52.70
2019-02-24T04:10:12.501Z,52.60
2019-02-24T04:12:38.902Z,52.40
2019-02-24T04:15:05.217Z,52.40
2019-02-24T04:17:31.545Z,52.50
2019-02-24T04:19:57.875Z,52.40
2019-02-24T04:22:24.123Z,52.40
2019-02-24T04:24:50.537Z,52.30
2019-02-24T04:27:16.864Z,52.30
2019-02-24T04:29:43.203Z,52.30
2019-02-24T04:32:12.485Z,52.20
2019-02-24T04:34:38.827Z,52.20
2019-02-24T04:37:05.157Z,52.10
2019-02-24T04:39:31.487Z,52.00
2019-02-24T04:41:57.820Z,52.10
2019-02-24T04:44:24.154Z,52.10
2019-02-24T04:46:50.399Z,52.00
2019-02-24T04:49:17.098Z,52.10
2019-02-24T04:51:43.445Z,52.00
2019-02-24T04:54:09.776Z,52.10
2019-02-24T04:56:36.093Z,52.00
2019-02-24T04:59:02.434Z,52.00
2019-02-24T05:01:28.763Z,52.00
2019-02-24T05:03:56.759Z,51.90
2019-02-24T05:06:23.064Z,51.90
2019-02-24T05:08:49.333Z,51.90
2019-02-24T05:11:15.725Z,52.00
2019-02-24T05:13:42.053Z,52.00
2019-02-24T05:16:08.416Z,52.10
2019-02-24T05:18:34.817Z,52.10
2019-02-24T05:21:01.110Z,52.00
2019-02-24T05:23:27.430Z,52.10
2019-02-24T05:25:54.034Z,52.00
2019-02-24T05:28:20.333Z,52.10
2019-02-24T05:30:46.685Z,52.10
2019-02-24T05:33:14.667Z,52.30
2019-02-24T05:35:41.299Z,52.40
2019-02-24T05:38:07.938Z,53.00
2019-02-24T05:40:34.348Z,52.50
2019-02-24T05:43:01.007Z,53.10
2019-02-24T05:45:27.522Z,52.60
2019-02-24T05:47:53.802Z,52.60
2019-02-24T05:50:20.087Z,53.40
2019-02-24T05:52:46.416Z,53.10
2019-02-24T05:55:12.739Z,53.20
2019-02-24T05:57:39.072Z,53.20
2019-02-24T06:00:06.079Z,53.30
2019-02-24T06:02:32.383Z,53.30
2019-02-24T06:04:58.778Z,53.30
2019-02-24T06:07:25.115Z,53.40
2019-02-24T06:09:51.448Z,53.30
2019-02-24T06:12:17.739Z,53.20
2019-02-24T06:14:44.010Z,53.00
2019-02-24T06:17:10.431Z,53.00
2019-02-24T06:19:36.760Z,53.10
2019-02-24T06:22:04.682Z,53.40
2019-02-24T06:24:30.957Z,53.50
2019-02-24T06:26:57.287Z,53.70
2019-02-24T06:29:23.617Z,53.80
2019-02-24T06:31:49.973Z,53.80
2019-02-24T06:34:16.251Z,53.80
2019-02-24T06:36:42.555Z,53.90
2019-02-24T06:39:08.939Z,53.90
2019-02-24T06:41:35.150Z,54.00
2019-02-24T06:44:01.496Z,54.10
2019-02-24T06:46:28.822Z,54.30
2019-02-24T06:48:55.050Z,54.40
2019-02-24T06:51:21.408Z,54.50
2019-02-24T06:53:47.624Z,54.60
2019-02-24T06:56:13.928Z,54.70
2019-02-24T06:58:40.222Z,54.90
2019-02-24T07:01:06.552Z,54.90
2019-02-24T07:03:32.944Z,55.00
2019-02-24T07:05:59.284Z,55.30
2019-02-24T07:08:25.516Z,55.70
2019-02-24T07:10:51.824Z,55.30
2019-02-24T07:13:18.277Z,55.60
2019-02-24T07:15:44.506Z,55.80
2019-02-24T07:18:10.929Z,56.00
2019-02-24T07:20:37.207Z,56.30
2019-02-24T07:23:03.803Z,56.40
2019-02-24T07:25:30.026Z,56.50
2019-02-24T07:27:56.364Z,56.50
2019-02-24T07:30:23.681Z,56.70
2019-02-24T07:32:50.576Z,56.60
2019-02-24T07:35:16.893Z,56.70
2019-02-24T07:37:43.222Z,56.60
2019-02-24T07:40:09.552Z,56.70
2019-02-24T07:42:35.804Z,57.30
2019-02-24T07:45:03.643Z,56.80
2019-02-24T07:47:29.945Z,57.00
2019-02-24T07:49:56.303Z,57.00
2019-02-24T07:52:24.303Z,57.20
2019-02-24T07:54:50.551Z,57.30
2019-02-24T07:57:16.934Z,57.60
2019-02-24T07:59:43.263Z,57.50
2019-02-24T08:02:09.546Z,57.40
2019-02-24T08:04:35.838Z,57.30
2019-02-24T08:07:02.151Z,57.00
2019-02-24T08:09:28.485Z,56.70
2019-02-24T08:11:54.814Z,56.60
2019-02-24T08:14:21.057Z,56.10
2019-02-24T08:16:47.479Z,56.20
2019-02-24T08:19:13.803Z,56.00
2019-02-24T08:21:40.133Z,55.60
2019-02-24T08:24:06.674Z,55.50
2019-02-24T08:26:32.882Z,55.20
2019-02-24T08:29:00.860Z,55.10
2019-02-24T08:31:27.117Z,54.90
2019-02-24T08:33:53.444Z,53.90
2019-02-24T08:36:19.855Z,53.90
2019-02-24T08:38:46.127Z,53.50
2019-02-24T08:41:12.516Z,52.90
2019-02-24T08:43:39.104Z,52.50
2019-02-24T08:46:05.423Z,52.80
2019-02-24T08:48:31.714Z,52.60
2019-02-24T08:50:58.375Z,52.10
2019-02-24T08:53:26.323Z,51.70
2019-02-24T08:55:52.648Z,51.10
2019-02-24T08:58:19.192Z,51.20
2019-02-24T09:00:50.936Z,50.70
2019-02-24T09:03:13.620Z,50.50
2019-02-24T09:05:40.863Z,50.80
2019-02-24T09:08:07.117Z,50.50
2019-02-24T09:10:33.407Z,50.40
2019-02-24T09:12:59.697Z,50.60
2019-02-24T09:15:26.015Z,50.20
2019-02-24T09:17:52.299Z,49.80
2019-02-24T09:20:18.612Z,50.00
2019-02-24T09:22:44.943Z,49.70
2019-02-24T09:25:11.273Z,49.80
2019-02-24T09:27:37.505Z,49.30
2019-02-24T09:30:10.078Z,48.60
2019-02-24T09:32:36.364Z,48.70
2019-02-24T09:35:03.967Z,48.60
2019-02-24T09:37:30.303Z,47.80
2019-02-24T09:39:56.627Z,47.20
2019-02-24T09:42:22.842Z,47.30
2019-02-24T09:44:49.290Z,47.40
2019-02-24T09:47:17.289Z,47.10
2019-02-24T09:49:43.586Z,47.00
2019-02-24T09:52:10.240Z,47.20
2019-02-24T09:54:36.658Z,46.70
2019-02-24T09:57:03.320Z,46.50
2019-02-24T09:59:29.692Z,46.50
2019-02-24T10:01:56.011Z,46.30
2019-02-24T10:04:22.323Z,46.10
2019-02-24T10:06:48.719Z,46.60
2019-02-24T10:09:15.041Z,46.70
2019-02-24T10:11:41.316Z,46.10
2019-02-24T10:14:07.629Z,46.30
2019-02-24T10:16:34.256Z,45.60
2019-02-24T10:19:01.188Z,44.60
2019-02-24T10:21:27.519Z,43.40
2019-02-24T10:23:53.804Z,43.50
2019-02-24T10:26:20.106Z,43.40
2019-02-24T10:28:47.754Z,42.90
2019-02-24T10:31:19.756Z,43.20
2019-02-24T10:33:42.872Z,42.50
2019-02-24T10:36:22.482Z,42.40
2019-02-24T10:38:48.965Z,41.10
2019-02-24T10:41:15.363Z,42.00
2019-02-24T10:43:41.694Z,42.60
2019-02-24T10:46:08.024Z,41.60
2019-02-24T10:48:34.309Z,42.20
2019-02-24T10:51:00.598Z,42.00
2019-02-24T10:53:28.212Z,42.30
2019-02-24T10:55:54.733Z,42.60
2019-02-24T10:58:21.364Z,42.90
2019-02-24T11:00:47.908Z,42.00
2019-02-24T11:03:14.154Z,41.10
2019-02-24T11:05:40.455Z,40.80
2019-02-24T11:08:07.051Z,40.40
2019-02-24T11:10:33.324Z,39.30
2019-02-24T11:12:59.602Z,38.20
2019-02-24T11:15:26.034Z,38.30
2019-02-24T11:17:52.318Z,39.30
2019-02-24T11:20:18.606Z,38.30
2019-02-24T11:22:44.923Z,39.40
2019-02-24T11:25:11.869Z,38.90
2019-02-24T11:27:38.198Z,39.10
2019-02-24T11:30:08.435Z,38.50
2019-02-24T11:32:34.734Z,37.60
2019-02-24T11:35:01.083Z,38.10
2019-02-24T11:37:27.412Z,38.60
2019-02-24T11:39:53.621Z,38.20
2019-02-24T11:42:19.923Z,37.80
2019-02-24T11:44:46.203Z,37.80
2019-02-24T11:47:12.527Z,37.60
2019-02-24T11:49:38.809Z,37.80
2019-02-24T11:52:05.132Z,38.40
2019-02-24T11:54:31.417Z,38.00
2019-02-24T11:57:03.896Z,37.10
2019-02-24T11:59:30.194Z,37.00
2019-02-24T12:01:56.558Z,37.30
2019-02-24T12:04:22.783Z,36.20
2019-02-24T12:06:49.426Z,37.60
2019-02-24T12:09:15.667Z,37.80
2019-02-24T12:11:42.079Z,38.10
2019-02-24T12:14:08.511Z,37.60
2019-02-24T12:16:34.759Z,38.20
2019-02-24T12:19:01.171Z,37.70
2019-02-24T12:21:27.503Z,38.00
2019-02-24T12:23:53.779Z,37.40
2019-02-24T12:26:20.163Z,36.70
2019-02-24T12:28:46.495Z,36.60
2019-02-24T12:31:12.920Z,36.30
2019-02-24T12:33:39.201Z,36.90
2019-02-24T12:36:05.585Z,36.00
2019-02-24T12:38:32.017Z,36.10
2019-02-24T12:40:58.307Z,36.40
2019-02-24T12:43:24.677Z,36.60
2019-02-24T12:45:51.223Z,36.70
2019-02-24T12:48:17.581Z,36.50
2019-02-24T12:50:43.912Z,36.30
2019-02-24T12:53:10.314Z,35.70
2019-02-24T12:55:36.562Z,35.10
2019-02-24T12:58:03.302Z,34.80
2019-02-24T13:00:29.716Z,34.90
2019-02-24T13:02:56.047Z,34.80
2019-02-24T13:05:22.374Z,35.30
2019-02-24T13:07:48.809Z,34.70
2019-02-24T13:10:16.380Z,35.20
2019-02-24T13:12:43.039Z,35.00
2019-02-24T13:15:09.643Z,34.60
2019-02-24T13:17:36.067Z,34.90
2019-02-24T13:20:04.804Z,34.60
2019-02-24T13:22:31.195Z,34.60
2019-02-24T13:24:57.525Z,35.10
2019-02-24T13:27:23.955Z,35.00
2019-02-24T13:29:50.390Z,35.00
2019-02-24T13:32:16.821Z,35.30
2019-02-24T13:34:45.074Z,34.90
2019-02-24T13:37:11.739Z,35.50
2019-02-24T13:39:38.073Z,35.20
2019-02-24T13:42:04.498Z,35.50
2019-02-24T13:44:30.842Z,35.40
2019-02-24T13:46:57.159Z,33.10
2019-02-24T13:49:23.594Z,33.00
2019-02-24T13:51:50.024Z,31.60
2019-02-24T13:54:16.458Z,30.10
2019-02-24T13:56:42.786Z,31.20
2019-02-24T13:59:09.117Z,31.70
2019-02-24T14:01:35.552Z,31.30
2019-02-24T14:04:01.885Z,30.60
2019-02-24T14:06:28.208Z,29.60
2019-02-24T14:08:54.541Z,29.80
2019-02-24T14:11:20.914Z,29.10
2019-02-24T14:13:47.581Z,31.00
2019-02-24T14:16:13.944Z,31.90
2019-02-24T14:18:40.272Z,31.70
2019-02-24T14:21:06.568Z,32.40
2019-02-24T14:23:32.935Z,32.10
2019-02-24T14:25:59.316Z,32.30
2019-02-24T14:28:26.605Z,32.60
2019-02-24T14:30:52.913Z,31.20
2019-02-24T14:33:19.206Z,31.90
2019-02-24T14:35:45.609Z,32.80
2019-02-24T14:38:12.161Z,31.20
2019-02-24T14:40:38.573Z,32.00
2019-02-24T14:43:04.898Z,31.70
2019-02-24T14:45:31.237Z,31.70
2019-02-24T14:47:59.766Z,31.30
2019-02-24T14:50:25.943Z,31.60
2019-02-24T14:52:52.376Z,31.80
2019-02-24T14:55:18.665Z,31.30
2019-02-24T14:57:45.091Z,28.90
2019-02-24T15:00:19.387Z,29.40
2019-02-24T15:02:45.720Z,30.10
2019-02-24T15:05:13.290Z,31.00
2019-02-24T15:07:39.813Z,30.20
2019-02-24T15:10:11.570Z,30.60
2019-02-24T15:12:38.312Z,30.20
2019-02-24T15:15:08.735Z,30.20
2019-02-24T15:17:35.378Z,29.80
2019-02-24T15:20:01.933Z,29.70
2019-02-24T15:22:28.355Z,29.80
2019-02-24T15:24:54.889Z,29.60
2019-02-24T15:27:21.414Z,29.70
2019-02-24T15:29:47.844Z,30.00
2019-02-24T15:32:14.286Z,30.20
2019-02-24T15:34:40.613Z,28.80
2019-02-24T15:37:07.264Z,28.60
2019-02-24T15:39:33.684Z,28.00
2019-02-24T15:42:00.933Z,28.10
2019-02-24T15:44:27.597Z,28.10
2019-02-24T15:46:54.002Z,28.10
2019-02-24T15:49:20.315Z,28.20
2019-02-24T15:51:46.632Z,27.90
2019-02-24T15:54:13.185Z,27.50
2019-02-24T15:56:39.533Z,28.10
2019-02-24T15:59:09.041Z,28.00
2019-02-24T16:01:35.474Z,27.30
2019-02-24T16:04:01.906Z,27.60
2019-02-24T16:06:36.906Z,28.10
2019-02-24T16:08:56.622Z,28.30
2019-02-24T16:11:23.235Z,28.40
2019-02-24T16:13:49.684Z,28.50
2019-02-24T16:16:16.116Z,28.30
2019-02-24T16:18:42.549Z,28.80
2019-02-24T16:21:09.203Z,28.50
2019-02-24T16:23:35.612Z,28.70
2019-02-24T16:26:02.056Z,28.90
2019-02-24T16:28:28.384Z,29.20
2019-02-24T16:30:54.638Z,29.20
2019-02-24T16:33:20.954Z,29.40
2019-02-24T16:35:47.374Z,29.60
2019-02-24T16:38:13.810Z,29.90
2019-02-24T16:40:40.754Z,29.70
2019-02-24T16:43:07.157Z,30.00
2019-02-24T16:45:33.861Z,30.20
2019-02-24T16:48:00.256Z,30.30
2019-02-24T16:50:26.693Z,30.50
2019-02-24T16:52:53.128Z,31.10
2019-02-24T16:55:19.515Z,31.00
2019-02-24T16:57:45.844Z,30.60
2019-02-24T17:00:17.996Z,30.60
2019-02-24T17:02:44.382Z,30.70
2019-02-24T17:05:11.270Z,30.50
2019-02-24T17:07:37.566Z,31.10
2019-02-24T17:10:07.774Z,31.00
2019-02-24T17:12:34.428Z,31.20
2019-02-24T17:15:02.443Z,32.10
2019-02-24T17:17:28.817Z,31.60
2019-02-24T17:19:55.119Z,31.90
2019-02-24T17:22:21.484Z,32.20
2019-02-24T17:24:48.218Z,32.20
2019-02-24T17:27:14.484Z,32.50
2019-02-24T17:29:40.979Z,32.90
2019-02-24T17:32:07.371Z,33.00
2019-02-24T17:34:34.191Z,33.10
2019-02-24T17:37:00.397Z,33.30
2019-02-24T17:39:27.035Z,33.40
2019-02-24T17:41:53.328Z,33.50
2019-02-24T17:44:19.721Z,33.80
2019-02-24T17:46:46.158Z,34.00
2019-02-24T17:49:12.543Z,34.10
2019-02-24T17:51:38.882Z,34.20
2019-02-24T17:54:05.323Z,34.30
2019-02-24T17:56:31.634Z,34.50
2019-02-24T17:58:57.965Z,34.70
2019-02-24T18:01:24.296Z,34.80
2019-02-24T18:03:50.624Z,35.00
2019-02-24T18:06:16.903Z,35.70
2019-02-24T18:08:43.282Z,35.90
2019-02-24T18:11:09.835Z,36.40
2019-02-24T18:13:36.253Z,36.00
2019-02-24T18:16:02.583Z,36.00
2019-02-24T18:18:31.002Z,36.20
2019-02-24T18:20:57.395Z,36.40
2019-02-24T18:23:23.725Z,36.30
2019-02-24T18:25:50.057Z,36.50
2019-02-24T18:28:16.488Z,36.60
2019-02-24T18:30:42.936Z,36.90
2019-02-24T18:33:09.231Z,37.00
2019-02-24T18:35:35.594Z,36.90
2019-02-24T18:38:01.927Z,37.10
2019-02-24T18:40:28.357Z,37.70
2019-02-24T18:43:00.287Z,37.20
2019-02-24T18:45:24.977Z,37.30
2019-02-24T18:47:51.281Z,37.30
2019-02-24T18:50:18.956Z,37.20
2019-02-24T18:52:45.555Z,37.30
2019-02-24T18:55:12.717Z,37.40
2019-02-24T18:57:39.044Z,37.30
2019-02-24T19:00:09.143Z,37.20
2019-02-24T19:02:35.735Z,37.20
2019-02-24T19:05:03.476Z,37.50
2019-02-24T19:07:29.974Z,37.80
2019-02-24T19:09:56.411Z,38.20
2019-02-24T19:12:22.698Z,38.40
2019-02-24T19:14:49.068Z,38.70
2019-02-24T19:17:15.405Z,38.70
2019-02-24T19:19:41.728Z,38.80
2019-02-24T19:22:08.274Z,39.20
2019-02-24T19:24:34.492Z,39.20
2019-02-24T19:27:00.823Z,39.40
2019-02-24T19:29:27.475Z,39.80
2019-02-24T19:31:53.791Z,39.90
2019-02-24T19:34:20.443Z,40.00
2019-02-24T19:36:48.549Z,40.10
2019-02-24T19:39:14.845Z,40.00
2019-02-24T19:41:41.264Z,40.00
2019-02-24T19:44:07.555Z,40.00
2019-02-24T19:46:33.851Z,40.10
2019-02-24T19:49:00.254Z,40.10
2019-02-24T19:51:26.564Z,40.00
2019-02-24T19:53:57.605Z,40.20
2019-02-24T19:56:23.809Z,40.30
2019-02-24T19:58:50.102Z,40.80
2019-02-24T20:01:16.509Z,40.20
2019-02-24T20:03:42.846Z,40.20
2019-02-24T20:06:09.361Z,40.30
2019-02-24T20:08:35.708Z,40.90
2019-02-24T20:11:02.144Z,40.80
2019-02-24T20:13:28.694Z,40.80
2019-02-24T20:15:54.996Z,40.90
2019-02-24T20:18:21.336Z,41.00
2019-02-24T20:20:47.597Z,41.10
2019-02-24T20:23:13.999Z,41.30
2019-02-24T20:25:40.218Z,41.30
2019-02-24T20:28:06.558Z,41.40
2019-02-24T20:30:34.217Z,41.50
2019-02-24T20:33:00.477Z,41.60
2019-02-24T20:35:26.879Z,41.60
2019-02-24T20:37:53.212Z,41.80
2019-02-24T20:40:19.636Z,41.60
2019-02-24T20:42:46.283Z,41.80
2019-02-24T20:45:19.871Z,42.00
2019-02-24T20:47:46.352Z,42.10
2019-02-24T20:50:18.565Z,42.10
2019-02-24T20:52:44.911Z,42.00
2019-02-24T20:55:11.686Z,41.70
2019-02-24T20:57:37.982Z,41.40
2019-02-24T21:00:08.093Z,41.50
2019-02-24T21:02:34.422Z,42.10
2019-02-24T21:05:00.701Z,41.70
2019-02-24T21:07:27.009Z,41.80
2019-02-24T21:09:53.314Z,41.90
2019-02-24T21:12:19.623Z,42.00
2019-02-24T21:14:45.979Z,42.10
2019-02-24T21:17:12.309Z,42.30
2019-02-24T21:19:38.640Z,42.30
2019-02-24T21:22:04.979Z,42.60
2019-02-24T21:24:31.283Z,42.70
2019-02-24T21:26:57.582Z,42.80
2019-02-24T21:29:23.961Z,42.90
2019-02-24T21:31:50.190Z,43.00
2019-02-24T21:34:16.623Z,43.00
2019-02-24T21:36:42.949Z,43.10
2019-02-24T21:39:09.646Z,43.00
2019-02-24T21:41:36.245Z,43.00
2019-02-24T21:44:02.763Z,43.20
2019-02-24T21:46:29.195Z,43.30
2019-02-24T21:48:55.630Z,44.20
2019-02-24T21:51:23.043Z,44.10
2019-02-24T21:53:49.431Z,44.30
2019-02-24T21:56:15.647Z,44.30
2019-02-24T21:58:41.943Z,44.30
2019-02-24T22:01:08.305Z,44.20
2019-02-24T22:03:34.636Z,44.10
2019-02-24T22:06:01.069Z,44.00
2019-02-24T22:08:27.396Z,44.00
2019-02-24T22:10:53.990Z,43.90
2019-02-24T22:13:20.466Z,44.00
2019-02-24T22:15:46.843Z,44.20
2019-02-24T22:18:13.234Z,44.20
2019-02-24T22:20:39.553Z,44.30
2019-02-24T22:23:05.867Z,44.50
2019-02-24T22:25:32.221Z,44.50
2019-02-24T22:27:58.551Z,44.60
2019-02-24T22:30:24.983Z,44.50
2019-02-24T22:32:51.223Z,44.50
2019-02-24T22:35:17.645Z,44.70
2019-02-24T22:37:44.047Z,44.80
2019-02-24T22:40:11.533Z,44.70
2019-02-24T22:42:37.966Z,44.70
2019-02-24T22:45:08.538Z,44.80
2019-02-24T22:47:35.131Z,45.00
2019-02-24T22:50:01.466Z,45.10
2019-02-24T22:52:27.789Z,44.80
2019-02-24T22:54:54.123Z,45.00
2019-02-24T22:57:26.363Z,45.00
2019-02-24T22:59:52.735Z,44.30
2019-02-24T23:02:21.011Z,45.60
2019-02-24T23:04:47.332Z,45.70
2019-02-24T23:07:13.661Z,45.60
2019-02-24T23:09:40.195Z,45.50
2019-02-24T23:12:06.475Z,45.50
2019-02-24T23:14:32.856Z,45.50
2019-02-24T23:16:59.612Z,45.50
2019-02-24T23:19:25.896Z,45.40
2019-02-24T23:21:52.190Z,45.30
2019-02-24T23:24:18.479Z,45.30
2019-02-24T23:26:44.823Z,45.30
2019-02-24T23:29:11.147Z,45.40
2019-02-24T23:31:37.428Z,45.40
2019-02-24T23:34:03.943Z,46.10
2019-02-24T23:36:30.442Z,45.50
2019-02-24T23:38:56.737Z,45.40
2019-02-24T23:41:23.103Z,45.60
2019-02-24T23:43:50.227Z,45.60
2019-02-24T23:46:16.584Z,45.70
2019-02-24T23:48:42.914Z,45.90
2019-02-24T23:51:09.241Z,45.90
2019-02-24T23:53:35.574Z,46.10
2019-02-24T23:56:02.007Z,46.10
2019-02-24T23:58:28.651Z,46.10
